Time;durP1;ratioP1;P1;durP2;ratioP2;P2;SDS_P1;SDS_P2;PMS_P1;PMS_P2;Temp;Humidity;BMP_temperature;BMP_pressure;BME280_temperature;BME280_humidity;BME280_pressure;Samples;Min_cycle;Max_cycle;Signal;HPM_P1;HPM_P2
2022/12/03 00:02:07;;;;;;;18.30;10.10;;;3.90;99.90;;;;;;5110758;28;20043;-70
2022/12/03 00:04:33;;;;;;;20.02;8.93;;;3.90;99.90;;;;;;5111355;28;20177;-69
2022/12/03 00:06:58;;;;;;;14.75;7.32;;;3.90;99.90;;;;;;5110412;28;20180;-69
2022/12/03 00:09:24;;;;;;;16.95;8.43;;;3.90;99.90;;;;;;5111970;28;20189;-69
2022/12/03 00:11:50;;;;;;;18.00;8.75;;;4.00;99.90;;;;;;5111153;28;20042;-69
2022/12/03 00:14:15;;;;;;;15.13;8.05;;;3.90;99.90;;;;;;5111003;28;20036;-69
2022/12/03 00:16:41;;;;;;;16.70;7.72;;;4.00;99.90;;;;;;5111231;28;20039;-69
2022/12/03 00:19:06;;;;;;;15.95;8.23;;;3.90;99.90;;;;;;5110615;28;20047;-69
2022/12/03 00:21:37;;;;;;;15.00;7.82;;;4.00;99.90;;;;;;5110475;28;20032;-69
2022/12/03 00:24:03;;;;;;;16.45;8.40;;;4.00;99.90;;;;;;5112291;28;20039;-69
2022/12/03 00:26:29;;;;;;;14.68;7.80;;;4.00;99.90;;;;;;5110180;28;20055;-69
2022/12/03 00:28:56;;;;;;;14.07;8.45;;;4.00;99.90;;;;;;5112260;28;20075;-69
2022/12/03 00:31:22;;;;;;;14.05;7.60;;;3.90;99.90;;;;;;5110568;28;20484;-69
2022/12/03 00:33:49;;;;;;;15.48;7.50;;;3.90;99.90;;;;;;5110162;28;20078;-69
2022/12/03 00:36:15;;;;;;;14.50;7.32;;;3.90;99.90;;;;;;5110500;28;20043;-69
2022/12/03 00:38:40;;;;;;;15.45;7.72;;;3.80;99.90;;;;;;5111722;28;20035;-69
2022/12/03 00:41:06;;;;;;;13.98;7.07;;;3.80;99.90;;;;;;5113309;28;20048;-69
2022/12/03 00:43:32;;;;;;;14.30;8.00;;;3.90;99.90;;;;;;5114410;28;20047;-69
2022/12/03 00:45:57;;;;;;;14.23;7.40;;;3.90;99.90;;;;;;5115871;28;20047;-69
2022/12/03 00:48:23;;;;;;;12.23;7.18;;;3.80;99.90;;;;;;5113198;28;20051;-69
2022/12/03 00:50:49;;;;;;;12.38;6.90;;;3.90;99.90;;;;;;5114340;28;20103;-69
2022/12/03 00:53:15;;;;;;;14.68;6.82;;;3.90;99.90;;;;;;5113821;28;20036;-69
2022/12/03 00:55:40;;;;;;;14.93;7.40;;;3.90;99.90;;;;;;5113635;28;20039;-69
2022/12/03 00:58:07;;;;;;;16.08;8.10;;;3.90;99.90;;;;;;5115094;28;20055;-69
2022/12/03 01:00:33;;;;;;;14.27;7.43;;;3.90;99.90;;;;;;5115640;28;20111;-69
2022/12/03 01:02:58;;;;;;;13.70;7.75;;;3.90;99.90;;;;;;5114602;28;20432;-69
2022/12/03 01:05:24;;;;;;;12.70;8.10;;;4.00;99.90;;;;;;5113564;28;20039;-69
2022/12/03 01:07:50;;;;;;;14.43;6.20;;;3.90;99.90;;;;;;5114150;28;20039;-69
2022/12/03 01:10:16;;;;;;;13.48;7.40;;;4.00;99.90;;;;;;5113913;28;20039;-69
2022/12/03 01:12:41;;;;;;;14.30;7.45;;;4.00;99.90;;;;;;5113908;28;20067;-69
2022/12/03 01:15:08;;;;;;;14.93;6.93;;;4.00;99.90;;;;;;5113348;28;20050;-69
2022/12/03 01:17:34;;;;;;;13.90;7.57;;;4.00;99.90;;;;;;5114501;28;20036;-69
2022/12/03 01:20:00;;;;;;;14.38;7.50;;;4.00;99.90;;;;;;5097087;28;20373;-69
2022/12/03 01:22:26;;;;;;;17.10;7.53;;;4.00;99.90;;;;;;5114506;28;20043;-69
2022/12/03 01:24:52;;;;;;;14.43;7.07;;;4.00;99.90;;;;;;5112929;28;20032;-69
2022/12/03 01:27:18;;;;;;;13.85;7.30;;;4.00;99.90;;;;;;5114090;28;20048;-69
2022/12/03 01:29:43;;;;;;;12.43;6.97;;;4.10;99.90;;;;;;5112908;28;20095;-69
2022/12/03 01:32:15;;;;;;;12.32;6.38;;;4.10;99.90;;;;;;5113178;28;20118;-69
2022/12/03 01:34:46;;;;;;;18.40;7.50;;;4.10;99.90;;;;;;5113957;28;20069;-69
2022/12/03 01:37:13;;;;;;;14.60;6.72;;;4.20;99.90;;;;;;5112219;28;20039;-69
2022/12/03 01:39:39;;;;;;;13.98;8.15;;;4.30;99.90;;;;;;5113325;28;20405;-69
2022/12/03 01:42:07;;;;;;;19.52;7.50;;;4.30;99.90;;;;;;5114136;28;20038;-69
2022/12/03 01:44:35;;;;;;;15.23;7.65;;;4.40;99.90;;;;;;5113896;28;20036;-69
2022/12/03 01:47:03;;;;;;;14.88;8.52;;;4.40;99.90;;;;;;5113521;28;20380;-69
2022/12/03 01:49:41;;;;;;;12.73;6.97;;;4.50;99.90;;;;;;5113800;28;20124;-69
2022/12/03 01:52:15;;;;;;;14.05;7.50;;;4.50;99.90;;;;;;5111703;28;20043;-69
2022/12/03 01:54:46;;;;;;;14.93;7.20;;;4.50;99.90;;;;;;5113200;28;20043;-69
2022/12/03 01:57:28;;;;;;;14.00;7.50;;;4.60;99.90;;;;;;5113854;28;20384;-69
2022/12/03 01:59:56;;;;;;;13.57;7.40;;;4.60;99.90;;;;;;5113501;28;20067;-69
2022/12/03 02:02:30;;;;;;;14.85;7.63;;;4.60;99.90;;;;;;5112688;28;20047;-69
2022/12/03 02:04:57;;;;;;;12.10;7.43;;;4.60;99.90;;;;;;5113573;28;20043;-69
2022/12/03 02:07:31;;;;;;;13.07;6.78;;;4.60;99.90;;;;;;5112329;28;20046;-69
2022/12/03 02:10:00;;;;;;;12.00;7.05;;;4.60;99.90;;;;;;5112673;28;20139;-69
2022/12/03 02:12:37;;;;;;;15.68;7.68;;;4.60;99.90;;;;;;5112556;28;20126;-69
2022/12/03 02:15:05;;;;;;;13.60;7.05;;;4.50;99.90;;;;;;5112746;28;20044;-69
2022/12/03 02:17:30;;;;;;;12.45;6.93;;;4.50;99.90;;;;;;5114153;28;20031;-69
2022/12/03 02:19:57;;;;;;;13.57;7.47;;;4.50;99.90;;;;;;5113072;28;20514;-69
2022/12/03 02:22:44;;;;;;;14.15;7.47;;;4.50;99.90;;;;;;5112161;28;20442;-69
2022/12/03 02:25:12;;;;;;;16.70;8.25;;;4.50;99.90;;;;;;5113384;28;20119;-69
2022/12/03 02:27:37;;;;;;;15.70;8.57;;;4.60;99.90;;;;;;5112802;28;20062;-69
2022/12/03 02:30:05;;;;;;;14.82;7.47;;;4.50;99.90;;;;;;5112316;28;20048;-69
2022/12/03 02:32:31;;;;;;;14.73;8.02;;;4.50;99.90;;;;;;5112413;28;20065;-69
2022/12/03 02:34:56;;;;;;;16.02;8.02;;;4.50;99.90;;;;;;5113014;28;20043;-69
2022/12/03 02:37:34;;;;;;;14.13;8.00;;;4.50;99.90;;;;;;5111770;28;20521;-69
2022/12/03 02:40:09;;;;;;;16.10;8.18;;;4.50;99.90;;;;;;5112759;28;20050;-69
2022/12/03 02:42:35;;;;;;;13.90;7.38;;;4.50;99.90;;;;;;5112308;28;20048;-69
2022/12/03 02:45:10;;;;;;;12.93;7.70;;;4.50;99.90;;;;;;5112277;28;20069;-69
2022/12/03 02:47:50;;;;;;;14.25;7.45;;;4.50;99.90;;;;;;5111393;28;20040;-70
2022/12/03 02:50:20;;;;;;;15.43;8.20;;;4.50;99.90;;;;;;5111513;28;20044;-70
2022/12/03 02:52:47;;;;;;;16.98;8.25;;;4.50;99.90;;;;;;5112038;28;20040;-69
2022/12/03 02:55:15;;;;;;;14.93;7.47;;;4.60;99.90;;;;;;5110749;28;20152;-69
2022/12/03 02:57:43;;;;;;;14.75;7.55;;;4.50;99.90;;;;;;5111850;28;20040;-69
2022/12/03 03:00:10;;;;;;;13.02;7.82;;;4.50;99.90;;;;;;5111303;28;20039;-69
2022/12/03 03:02:37;;;;;;;15.07;7.82;;;4.50;99.90;;;;;;5110787;28;20051;-69
2022/12/03 03:05:06;;;;;;;13.85;7.07;;;4.50;99.90;;;;;;5094818;28;20047;-69
2022/12/03 03:07:32;;;;;;;14.43;8.05;;;4.50;99.90;;;;;;5111698;28;20046;-69
2022/12/03 03:09:59;;;;;;;14.07;7.28;;;4.60;99.90;;;;;;5110948;28;20052;-69
2022/12/03 03:12:25;;;;;;;15.68;8.05;;;4.60;99.90;;;;;;5111085;28;20040;-69
2022/12/03 03:14:51;;;;;;;18.33;9.18;;;4.60;99.90;;;;;;5112933;28;20039;-69
2022/12/03 03:17:17;;;;;;;18.40;9.13;;;4.50;99.90;;;;;;5110719;28;20078;-69
2022/12/03 03:19:43;;;;;;;14.05;7.72;;;4.60;99.90;;;;;;5112968;28;20074;-69
2022/12/03 03:22:10;;;;;;;13.60;7.53;;;4.60;99.90;;;;;;5110584;28;20036;-70
2022/12/03 03:24:36;;;;;;;14.27;8.57;;;4.60;99.90;;;;;;5112893;28;20114;-69
2022/12/03 03:27:02;;;;;;;16.15;7.85;;;4.60;99.90;;;;;;5112733;28;20048;-69
2022/12/03 03:29:29;;;;;;;14.25;8.02;;;4.60;99.90;;;;;;5093312;28;20059;-69
2022/12/03 03:31:55;;;;;;;16.20;8.18;;;4.60;99.90;;;;;;5111568;28;20096;-69
2022/12/03 03:34:20;;;;;;;15.75;7.95;;;4.60;99.90;;;;;;5112446;28;20036;-69
2022/12/03 03:36:46;;;;;;;17.02;8.40;;;4.70;99.90;;;;;;5110670;28;20032;-69
2022/12/03 03:39:12;;;;;;;14.52;8.65;;;4.70;99.90;;;;;;5112337;28;20044;-69
2022/12/03 03:41:38;;;;;;;15.55;7.65;;;4.70;99.90;;;;;;5111356;28;20044;-69
2022/12/03 03:44:06;;;;;;;17.13;9.05;;;4.70;99.90;;;;;;5111237;28;20043;-69
2022/12/03 03:46:33;;;;;;;14.32;8.10;;;4.70;99.90;;;;;;5112851;28;20046;-69
2022/12/03 03:49:00;;;;;;;16.48;8.23;;;4.70;99.90;;;;;;5112702;28;20044;-69
2022/12/03 03:51:26;;;;;;;14.68;7.97;;;4.70;99.90;;;;;;5111170;28;20043;-69
2022/12/03 03:53:52;;;;;;;14.95;8.73;;;4.70;99.90;;;;;;5112409;28;20042;-70
2022/12/03 03:56:20;;;;;;;14.43;8.45;;;4.70;99.90;;;;;;5112023;28;20067;-69
2022/12/03 03:58:45;;;;;;;15.70;9.45;;;4.70;99.90;;;;;;5110465;28;20056;-69
2022/12/03 04:01:13;;;;;;;14.82;7.85;;;4.70;99.90;;;;;;5110748;28;20058;-69
2022/12/03 04:03:39;;;;;;;18.30;8.82;;;4.70;99.90;;;;;;5111416;28;20121;-69
2022/12/03 04:06:05;;;;;;;18.30;10.43;;;4.70;99.90;;;;;;5092909;28;20039;-69
2022/12/03 04:08:31;;;;;;;22.05;12.60;;;4.60;99.90;;;;;;5111107;28;20092;-69
2022/12/03 04:13:40;;;;;;;17.30;9.65;;;4.60;99.90;;;;;;5111514;28;20051;-69
2022/12/03 04:16:06;;;;;;;23.30;13.02;;;4.60;99.90;;;;;;5116033;28;20040;-69
2022/12/03 04:24:10;;;;;;;33.92;18.23;;;4.60;99.90;;;;;;5114290;28;20127;-69
2022/12/03 04:29:22;;;;;;;52.10;28.50;;;4.60;99.90;;;;;;5115533;28;20400;-69
2022/12/03 04:37:16;;;;;;;21.25;13.13;;;4.50;99.90;;;;;;5114046;28;20047;-69
2022/12/03 04:39:41;;;;;;;19.65;10.05;;;4.50;99.90;;;;;;5115130;28;20134;-69
2022/12/03 04:42:07;;;;;;;19.88;11.20;;;4.50;99.90;;;;;;5114273;28;20496;-69
2022/12/03 04:44:36;;;;;;;20.27;12.30;;;4.50;99.90;;;;;;5114804;28;20427;-69
2022/12/03 04:47:10;;;;;;;18.20;10.25;;;4.50;99.90;;;;;;5113756;28;20526;-69
2022/12/03 04:49:39;;;;;;;19.65;11.45;;;4.50;99.90;;;;;;5114483;28;20040;-69
2022/12/03 04:52:05;;;;;;;20.33;11.25;;;4.50;99.90;;;;;;5113868;28;20047;-69
2022/12/03 04:54:31;;;;;;;21.48;11.52;;;4.40;99.90;;;;;;5114854;28;20071;-69
2022/12/03 04:56:57;;;;;;;21.52;11.55;;;4.40;99.90;;;;;;5114236;28;20075;-69
2022/12/03 04:59:22;;;;;;;21.15;11.68;;;4.40;99.90;;;;;;5113581;28;20047;-69
2022/12/03 05:01:48;;;;;;;16.25;9.30;;;4.40;99.90;;;;;;5113446;28;20085;-69
2022/12/03 05:04:14;;;;;;;16.40;9.68;;;4.40;99.90;;;;;;5113689;28;20085;-69
2022/12/03 05:06:55;;;;;;;18.75;9.38;;;4.40;99.90;;;;;;5059611;28;20051;-69
2022/12/03 05:09:21;;;;;;;15.73;9.98;;;4.30;99.90;;;;;;5112639;28;20052;-69
2022/12/03 05:11:47;;;;;;;23.17;11.77;;;4.30;99.90;;;;;;5115420;28;20054;-69
2022/12/03 05:14:13;;;;;;;20.38;10.80;;;4.30;99.90;;;;;;5113341;28;20040;-69
2022/12/03 05:16:39;;;;;;;24.35;12.77;;;4.30;99.90;;;;;;5114527;28;20036;-69
2022/12/03 05:19:06;;;;;;;18.35;10.05;;;4.30;99.90;;;;;;5113313;28;20043;-69
2022/12/03 05:21:31;;;;;;;22.15;12.48;;;4.30;99.90;;;;;;5115064;28;20605;-69
2022/12/03 05:23:57;;;;;;;21.20;11.43;;;4.30;99.90;;;;;;5112843;28;20130;-69
2022/12/03 05:26:23;;;;;;;19.85;10.82;;;4.30;99.90;;;;;;5114268;28;20405;-69
2022/12/03 05:28:49;;;;;;;22.20;12.35;;;4.30;99.90;;;;;;5114143;28;20047;-69
2022/12/03 05:31:15;;;;;;;21.42;11.43;;;4.30;99.90;;;;;;5113056;28;20043;-69
2022/12/03 05:33:41;;;;;;;24.02;12.98;;;4.20;99.90;;;;;;5113551;28;20040;-69
2022/12/03 05:36:08;;;;;;;21.02;11.07;;;4.30;99.90;;;;;;5113941;28;20065;-69
2022/12/03 05:38:34;;;;;;;18.65;10.85;;;4.20;99.90;;;;;;5114766;28;20031;-69
2022/12/03 05:40:59;;;;;;;23.23;12.32;;;4.20;99.90;;;;;;5113664;28;20036;-69
2022/12/03 05:43:25;;;;;;;16.90;10.50;;;4.30;99.90;;;;;;5112130;28;20044;-69
2022/12/03 05:45:56;;;;;;;24.73;10.77;;;4.30;99.90;;;;;;5113706;28;20036;-69
2022/12/03 05:48:21;;;;;;;40.38;22.35;;;4.20;99.90;;;;;;5113918;28;20038;-69
2022/12/03 05:50:47;;;;;;;18.58;10.35;;;4.20;99.90;;;;;;5112343;28;20044;-69
2022/12/03 05:53:14;;;;;;;19.55;11.77;;;4.20;99.90;;;;;;5113774;28;20035;-69
2022/12/03 05:55:40;;;;;;;21.33;12.25;;;4.20;99.90;;;;;;5113432;28;20357;-69
2022/12/03 05:58:06;;;;;;;17.27;9.30;;;4.20;99.90;;;;;;5113031;28;20039;-69
2022/12/03 06:00:38;;;;;;;21.65;11.35;;;4.20;99.90;;;;;;5113158;28;20051;-69
2022/12/03 06:03:07;;;;;;;17.20;8.82;;;4.20;99.90;;;;;;5112384;28;20046;-69
2022/12/03 06:05:33;;;;;;;19.10;9.88;;;4.20;99.90;;;;;;5112049;28;20051;-69
2022/12/03 06:07:59;;;;;;;19.50;10.25;;;4.20;99.90;;;;;;5114408;28;20043;-69
2022/12/03 06:10:26;;;;;;;18.02;10.10;;;4.20;99.90;;;;;;5112303;28;20039;-69
2022/12/03 06:12:52;;;;;;;18.55;10.15;;;4.20;99.90;;;;;;5112023;28;20040;-69
2022/12/03 06:15:18;;;;;;;15.40;9.27;;;4.20;99.90;;;;;;5113387;28;20044;-69
2022/12/03 06:17:44;;;;;;;17.33;8.75;;;4.10;99.90;;;;;;5113966;28;20040;-69
2022/12/03 06:20:14;;;;;;;19.08;9.93;;;4.20;99.90;;;;;;5111138;28;20127;-69
2022/12/03 06:22:39;;;;;;;22.27;11.48;;;4.10;99.90;;;;;;5112781;28;20058;-69
2022/12/03 06:25:05;;;;;;;15.98;8.93;;;4.10;99.90;;;;;;5112509;28;20036;-70
2022/12/03 06:27:31;;;;;;;19.40;10.85;;;4.10;99.90;;;;;;5112494;28;20063;-69
2022/12/03 06:29:57;;;;;;;17.60;11.43;;;4.10;99.90;;;;;;5112338;28;20061;-69
2022/12/03 06:32:22;;;;;;;16.92;9.43;;;4.10;99.90;;;;;;5111055;28;20043;-69
2022/12/03 06:34:48;;;;;;;17.92;9.32;;;4.10;99.90;;;;;;5112296;28;20035;-69
2022/12/03 06:37:14;;;;;;;17.45;9.75;;;4.10;99.90;;;;;;5111229;28;20051;-69
2022/12/03 06:39:39;;;;;;;19.13;9.73;;;4.10;99.90;;;;;;5111886;28;20039;-69
2022/12/03 06:42:05;;;;;;;18.05;9.85;;;4.10;99.90;;;;;;5111655;28;20036;-69
2022/12/03 06:44:30;;;;;;;20.50;9.82;;;4.10;99.90;;;;;;5112095;28;20052;-69
2022/12/03 06:46:56;;;;;;;18.75;9.68;;;4.00;99.90;;;;;;5112736;28;20036;-69
2022/12/03 06:49:22;;;;;;;20.65;10.85;;;4.10;99.90;;;;;;5111581;28;20043;-69
2022/12/03 06:51:47;;;;;;;16.45;9.27;;;4.00;99.90;;;;;;5112075;28;20039;-69
2022/12/03 06:54:13;;;;;;;17.33;9.50;;;4.00;99.90;;;;;;5112097;28;20039;-69
2022/12/03 06:56:39;;;;;;;15.38;8.60;;;4.00;99.90;;;;;;5112029;28;20028;-69
2022/12/03 06:59:04;;;;;;;15.82;9.57;;;4.00;99.90;;;;;;5112578;28;20039;-69
2022/12/03 07:01:30;;;;;;;20.98;10.50;;;4.00;99.90;;;;;;5112451;28;20035;-69
2022/12/03 07:03:56;;;;;;;16.42;9.80;;;4.00;99.90;;;;;;5111849;28;20039;-69
2022/12/03 07:06:21;;;;;;;24.60;14.52;;;4.00;99.90;;;;;;5111265;28;20043;-70
2022/12/03 07:08:47;;;;;;;20.75;11.25;;;4.00;99.90;;;;;;5112248;28;20065;-69
2022/12/03 07:11:31;;;;;;;22.77;10.20;;;4.00;99.90;;;;;;5112335;28;20035;-69
2022/12/03 07:13:58;;;;;;;16.38;9.88;;;4.00;99.90;;;;;;5111718;28;20110;-69
2022/12/03 07:16:24;;;;;;;19.08;10.18;;;4.00;99.90;;;;;;5110447;28;20051;-69
2022/12/03 07:18:49;;;;;;;19.50;10.07;;;4.00;99.90;;;;;;5111461;28;20403;-69
2022/12/03 07:21:15;;;;;;;17.42;9.52;;;4.00;99.90;;;;;;5111954;28;20070;-69
2022/12/03 07:23:41;;;;;;;18.60;9.57;;;4.00;99.90;;;;;;5112869;28;20036;-69
2022/12/03 07:26:07;;;;;;;16.35;9.13;;;4.00;99.90;;;;;;5111031;28;20112;-69
2022/12/03 07:28:33;;;;;;;18.15;10.07;;;4.00;99.90;;;;;;5110464;28;20442;-69
2022/12/03 07:30:59;;;;;;;19.63;10.85;;;3.90;99.90;;;;;;5111538;28;20051;-69
2022/12/03 07:33:24;;;;;;;18.85;9.68;;;3.90;99.90;;;;;;5112145;28;20035;-70
2022/12/03 07:35:50;;;;;;;16.42;8.52;;;3.90;99.90;;;;;;5110973;28;20527;-69
2022/12/03 07:38:16;;;;;;;16.23;9.02;;;3.90;99.90;;;;;;5112274;28;20476;-69
2022/12/03 07:40:41;;;;;;;18.40;8.75;;;3.90;99.90;;;;;;5094463;28;20480;-69
2022/12/03 07:43:07;;;;;;;16.13;9.25;;;3.90;99.90;;;;;;5092893;28;20054;-69
2022/12/03 07:45:33;;;;;;;15.73;9.13;;;3.90;99.90;;;;;;5094806;28;20039;-70
2022/12/03 07:47:58;;;;;;;21.75;12.40;;;3.80;99.90;;;;;;5114162;28;20046;-69
2022/12/03 07:50:27;;;;;;;20.95;11.65;;;3.90;99.90;;;;;;5114269;28;20061;-70
2022/12/03 07:52:53;;;;;;;18.20;8.90;;;3.80;99.90;;;;;;5115831;28;20161;-69
2022/12/03 07:55:19;;;;;;;16.80;9.85;;;3.80;99.90;;;;;;5116161;28;20032;-69
2022/12/03 07:57:44;;;;;;;16.95;8.88;;;3.80;99.90;;;;;;5110524;28;20036;-70
2022/12/03 08:00:11;;;;;;;21.20;10.57;;;3.80;99.90;;;;;;5093292;28;20055;-69
2022/12/03 08:02:37;;;;;;;17.35;9.27;;;3.80;99.90;;;;;;5110708;28;20039;-68
2022/12/03 08:05:03;;;;;;;18.23;9.95;;;3.80;99.90;;;;;;5111765;28;20462;-69
2022/12/03 08:07:29;;;;;;;16.75;9.27;;;3.80;99.90;;;;;;5112000;27;20470;-69
2022/12/03 08:09:55;;;;;;;18.67;8.80;;;3.70;99.90;;;;;;5110544;28;20040;-69
2022/12/03 08:12:38;;;;;;;18.48;9.77;;;3.70;99.90;;;;;;5109036;28;20031;-70
2022/12/03 08:15:23;;;;;;;17.83;9.07;;;3.80;99.90;;;;;;5107312;28;20039;-69
2022/12/03 08:17:57;;;;;;;19.27;9.18;;;3.70;99.90;;;;;;5100337;28;20754;-70
2022/12/03 08:20:33;;;;;;;17.95;8.95;;;3.80;99.90;;;;;;5105485;28;20590;-69
2022/12/03 08:23:02;;;;;;;16.73;8.88;;;3.70;99.90;;;;;;5111885;28;20044;-69
2022/12/03 08:25:31;;;;;;;17.65;9.45;;;3.70;99.90;;;;;;5111100;28;20079;-69
2022/12/03 08:28:15;;;;;;;17.80;9.52;;;3.70;99.90;;;;;;5111109;28;20067;-69
2022/12/03 08:30:42;;;;;;;24.42;13.23;;;3.70;99.90;;;;;;5079774;28;20505;-70
2022/12/03 08:33:27;;;;;;;30.38;15.52;;;3.70;99.90;;;;;;5102094;28;20089;-68
2022/12/03 08:35:53;;;;;;;31.60;15.55;;;3.70;99.90;;;;;;5111870;28;20075;-69
2022/12/03 08:38:22;;;;;;;31.15;16.17;;;3.60;99.90;;;;;;5114076;27;20168;-69
2022/12/03 08:40:50;;;;;;;25.45;14.48;;;3.70;99.90;;;;;;5112989;28;20106;-69
2022/12/03 08:43:26;;;;;;;34.80;19.95;;;3.70;99.90;;;;;;5110375;28;20039;-69
2022/12/03 08:45:53;;;;;;;25.67;16.55;;;3.70;99.90;;;;;;5102517;28;20519;-69
2022/12/03 08:48:32;;;;;;;19.98;9.27;;;3.60;99.90;;;;;;5111010;27;20036;-69
2022/12/03 08:51:05;;;;;;;20.10;9.52;;;3.60;99.90;;;;;;5111495;28;20556;-69
2022/12/03 08:53:44;;;;;;;16.00;9.25;;;3.60;99.90;;;;;;5111125;28;20418;-69
2022/12/03 08:56:25;;;;;;;18.17;9.43;;;3.60;99.90;;;;;;5110707;28;20084;-70
2022/12/03 08:59:15;;;;;;;25.55;11.38;;;3.60;99.90;;;;;;5110855;28;20055;-69
2022/12/03 09:01:42;;;;;;;20.55;9.57;;;3.60;99.90;;;;;;5102115;28;20071;-69
2022/12/03 09:04:29;;;;;;;17.40;9.25;;;3.60;99.90;;;;;;5112636;28;20047;-69
2022/12/03 09:06:55;;;;;;;27.15;14.43;;;3.50;99.90;;;;;;5110893;28;20035;-69
2022/12/03 09:09:21;;;;;;;26.40;16.52;;;3.60;99.90;;;;;;5110554;28;20049;-69
2022/12/03 09:11:47;;;;;;;27.27;15.73;;;3.50;99.90;;;;;;5111562;28;20054;-69
2022/12/03 09:14:13;;;;;;;22.45;11.15;;;3.50;99.90;;;;;;5110632;28;20039;-69
2022/12/03 09:16:39;;;;;;;26.05;15.65;;;3.50;99.90;;;;;;5112872;28;20510;-69
2022/12/03 09:19:05;;;;;;;24.35;13.80;;;3.50;99.90;;;;;;5112085;28;20117;-69
2022/12/03 09:21:32;;;;;;;20.80;10.68;;;3.50;99.90;;;;;;5110135;28;20067;-68
2022/12/03 09:23:57;;;;;;;24.42;13.10;;;3.50;99.90;;;;;;5111298;28;20055;-68
2022/12/03 09:26:23;;;;;;;42.30;21.38;;;3.50;99.90;;;;;;5109050;28;20059;-69
2022/12/03 09:28:49;;;;;;;28.70;15.30;;;3.50;99.90;;;;;;5111699;28;20101;-69
2022/12/03 09:31:15;;;;;;;59.03;30.40;;;3.50;99.90;;;;;;5112060;28;20031;-69
2022/12/03 09:33:41;;;;;;;64.30;33.95;;;3.40;99.90;;;;;;5110959;28;20036;-69
2022/12/03 09:36:07;;;;;;;22.30;12.85;;;3.40;99.90;;;;;;5108266;28;20445;-70
2022/12/03 09:38:32;;;;;;;24.58;13.27;;;3.40;99.90;;;;;;5109948;28;20042;-70
2022/12/03 09:40:59;;;;;;;20.33;13.80;;;3.40;99.90;;;;;;5106725;28;20127;-69
2022/12/03 09:43:29;;;;;;;21.48;10.88;;;3.40;99.90;;;;;;5103164;28;20549;-70
2022/12/03 09:45:55;;;;;;;21.65;11.05;;;3.40;99.90;;;;;;5108606;28;20039;-69
2022/12/03 09:48:21;;;;;;;17.08;9.45;;;3.40;99.90;;;;;;5110797;28;20119;-70
2022/12/03 09:50:47;;;;;;;21.13;10.48;;;3.40;99.90;;;;;;5109269;28;20134;-70
2022/12/03 09:53:19;;;;;;;22.85;13.60;;;3.30;99.90;;;;;;5109439;28;20042;-69
2022/12/03 09:55:46;;;;;;;32.97;17.80;;;3.30;99.90;;;;;;5109765;28;20047;-69
2022/12/03 09:58:15;;;;;;;23.13;13.80;;;3.30;99.90;;;;;;5106691;28;20131;-69
2022/12/03 10:00:46;;;;;;;25.00;14.70;;;3.30;99.90;;;;;;5105805;28;20380;-69
2022/12/03 10:03:14;;;;;;;26.48;14.30;;;3.30;99.90;;;;;;5101973;28;20438;-69
2022/12/03 10:05:40;;;;;;;20.92;11.48;;;3.30;99.90;;;;;;5110225;28;20166;-69
2022/12/03 10:08:09;;;;;;;20.85;10.65;;;3.30;99.90;;;;;;5106146;28;20133;-69
2022/12/03 10:10:36;;;;;;;19.67;10.73;;;3.30;99.90;;;;;;5109745;28;20073;-69
2022/12/03 10:13:02;;;;;;;23.65;13.18;;;3.30;99.90;;;;;;5098146;28;20036;-69
2022/12/03 10:15:28;;;;;;;27.92;13.82;;;3.30;99.90;;;;;;5110470;28;20039;-69
2022/12/03 10:17:54;;;;;;;24.25;11.98;;;3.30;99.90;;;;;;5092218;28;20499;-69
2022/12/03 10:20:22;;;;;;;20.38;11.20;;;3.30;99.90;;;;;;5109464;28;20032;-69
2022/12/03 10:22:48;;;;;;;20.33;11.38;;;3.40;99.90;;;;;;5106993;28;20122;-69
2022/12/03 10:25:18;;;;;;;22.77;12.27;;;3.30;99.90;;;;;;5109542;28;20027;-69
2022/12/03 10:27:59;;;;;;;27.15;13.30;;;3.30;99.90;;;;;;5099467;28;20066;-69
2022/12/03 10:30:27;;;;;;;22.15;12.55;;;3.40;99.90;;;;;;5105881;28;20399;-69
2022/12/03 10:32:54;;;;;;;22.48;11.45;;;3.40;99.90;;;;;;5108074;28;20035;-69
2022/12/03 10:35:22;;;;;;;20.80;11.18;;;3.40;99.90;;;;;;5108639;28;20031;-69
2022/12/03 10:38:18;;;;;;;21.45;10.88;;;3.40;99.90;;;;;;5110670;28;20461;-69
2022/12/03 10:40:45;;;;;;;22.58;11.05;;;3.40;99.90;;;;;;5109612;28;20047;-69
2022/12/03 10:43:16;;;;;;;21.42;12.32;;;3.40;99.90;;;;;;5108375;28;20063;-69
2022/12/03 10:45:44;;;;;;;22.48;10.80;;;3.40;99.90;;;;;;5108248;28;20389;-69
2022/12/03 10:48:11;;;;;;;21.15;10.90;;;3.50;99.90;;;;;;5110359;28;20785;-68
2022/12/03 10:50:37;;;;;;;21.08;10.85;;;3.40;99.90;;;;;;5109415;28;20122;-69
2022/12/03 10:53:03;;;;;;;44.78;22.15;;;3.40;99.90;;;;;;5108913;28;20499;-69
2022/12/03 10:55:36;;;;;;;31.30;18.33;;;3.40;99.90;;;;;;5109832;28;20368;-69
2022/12/03 10:58:02;;;;;;;34.60;20.05;;;3.50;99.90;;;;;;5108698;28;20396;-69
2022/12/03 11:00:27;;;;;;;23.52;13.90;;;3.50;99.90;;;;;;5083402;27;20044;-69
2022/12/03 11:02:53;;;;;;;19.77;11.43;;;3.50;99.90;;;;;;5110242;28;20058;-69
2022/12/03 11:05:25;;;;;;;20.30;10.80;;;3.40;99.90;;;;;;5108764;28;20031;-69
2022/12/03 11:07:51;;;;;;;27.48;16.17;;;3.40;99.90;;;;;;5108532;28;20075;-69
2022/12/03 11:10:18;;;;;;;18.83;10.30;;;3.40;99.90;;;;;;5100029;28;20051;-69
2022/12/03 11:13:21;;;;;;;26.98;12.07;;;3.50;99.90;;;;;;5107709;28;20425;-69
2022/12/03 11:15:47;;;;;;;22.20;11.60;;;3.50;99.90;;;;;;5109979;28;20441;-69
2022/12/03 11:18:35;;;;;;;21.13;10.20;;;3.40;99.90;;;;;;5108409;28;20042;-69
2022/12/03 11:21:08;;;;;;;23.50;10.85;;;3.40;99.90;;;;;;5103567;28;20090;-69
2022/12/03 11:23:43;;;;;;;19.90;11.18;;;3.40;99.90;;;;;;5108950;28;20078;-69
2022/12/03 11:26:35;;;;;;;22.00;11.80;;;3.50;99.90;;;;;;5098693;28;20399;-69
2022/12/03 11:29:01;;;;;;;23.58;11.40;;;3.50;99.90;;;;;;5077772;28;20054;-68
2022/12/03 11:31:46;;;;;;;21.35;11.68;;;3.40;99.90;;;;;;5100545;28;20510;-68
2022/12/03 11:34:21;;;;;;;19.45;10.38;;;3.50;99.90;;;;;;5108657;28;20652;-69
2022/12/03 11:37:16;;;;;;;20.50;10.63;;;3.50;99.90;;;;;;5104816;28;20058;-69
2022/12/03 11:39:50;;;;;;;19.75;10.95;;;3.50;99.90;;;;;;5109682;28;20491;-69
2022/12/03 11:42:25;;;;;;;22.35;12.50;;;3.50;99.90;;;;;;5090077;28;20518;-69
2022/12/03 11:45:03;;;;;;;20.33;10.23;;;3.50;99.90;;;;;;5107371;28;20069;-69
2022/12/03 11:47:32;;;;;;;18.45;9.80;;;3.50;99.90;;;;;;5107295;28;20043;-68
2022/12/03 11:49:58;;;;;;;18.35;10.68;;;3.50;99.90;;;;;;5108743;28;20482;-69
2022/12/03 11:52:29;;;;;;;21.20;9.60;;;3.50;99.90;;;;;;5108979;28;20490;-69
2022/12/03 11:55:14;;;;;;;18.77;10.23;;;3.50;99.90;;;;;;5109406;28;20046;-69
2022/12/03 11:57:42;;;;;;;167.20;88.28;;;3.50;99.90;;;;;;5088505;28;20044;-69
2022/12/03 12:00:26;;;;;;;38.92;21.60;;;3.50;99.90;;;;;;5087149;28;20503;-69
2022/12/03 12:02:54;;;;;;;32.25;18.75;;;3.50;99.90;;;;;;5086926;28;20052;-69
2022/12/03 12:05:34;;;;;;;25.23;15.27;;;3.40;99.90;;;;;;5102960;28;20043;-69
2022/12/03 12:08:01;;;;;;;26.17;16.33;;;3.40;99.90;;;;;;5070478;28;20079;-69
2022/12/03 12:10:43;;;;;;;27.88;15.65;;;3.40;99.90;;;;;;5068926;28;20059;-69
2022/12/03 12:13:31;;;;;;;20.58;10.85;;;3.40;99.90;;;;;;5086709;28;20101;-69
2022/12/03 12:16:07;;;;;;;24.15;12.43;;;3.40;99.90;;;;;;5098910;28;20200;-69
2022/12/03 12:18:50;;;;;;;24.35;11.82;;;3.40;99.90;;;;;;5107627;28;20050;-69
2022/12/03 12:21:41;;;;;;;18.27;10.48;;;3.40;99.90;;;;;;5105429;28;20035;-69
2022/12/03 12:24:29;;;;;;;20.27;10.80;;;3.40;99.90;;;;;;5106300;28;20488;-69
2022/12/03 12:26:56;;;;;;;25.85;12.82;;;3.40;99.90;;;;;;5107050;28;20120;-69
2022/12/03 12:29:22;;;;;;;23.30;11.43;;;3.40;99.90;;;;;;5106801;28;20039;-69
2022/12/03 12:31:48;;;;;;;22.65;12.00;;;3.40;99.90;;;;;;5107865;28;20036;-69
2022/12/03 12:34:14;;;;;;;20.40;10.85;;;3.40;99.90;;;;;;5107732;28;20549;-69
2022/12/03 12:36:40;;;;;;;22.15;11.50;;;3.40;99.90;;;;;;5093862;28;20047;-69
2022/12/03 12:39:14;;;;;;;19.33;11.27;;;3.40;99.90;;;;;;5110994;28;20040;-69
2022/12/03 12:41:41;;;;;;;22.88;11.32;;;3.40;99.90;;;;;;5111499;28;20078;-69
2022/12/03 12:44:09;;;;;;;21.48;11.57;;;3.40;99.90;;;;;;5092251;28;20044;-69
2022/12/03 12:46:36;;;;;;;23.80;11.52;;;3.40;99.90;;;;;;5112174;28;20074;-69
2022/12/03 12:49:10;;;;;;;23.30;12.02;;;3.40;99.90;;;;;;5111375;28;20043;-69
2022/12/03 12:51:37;;;;;;;22.25;12.15;;;3.40;99.90;;;;;;5111853;28;20055;-69
2022/12/03 12:54:10;;;;;;;25.80;13.05;;;3.40;99.90;;;;;;5112149;28;20043;-69
2022/12/03 12:56:36;;;;;;;25.73;13.40;;;3.40;99.90;;;;;;5113067;28;20039;-69
2022/12/03 12:59:23;;;;;;;20.35;11.85;;;3.30;99.90;;;;;;5110264;28;20115;-69
2022/12/03 13:01:49;;;;;;;25.27;13.80;;;3.30;99.90;;;;;;5112683;28;20074;-69
2022/12/03 13:04:20;;;;;;;24.58;13.77;;;3.30;99.90;;;;;;5111759;28;20040;-70
2022/12/03 13:06:48;;;;;;;25.88;14.02;;;3.30;99.90;;;;;;5110363;28;20118;-70